sensor_id;sensor_type;location;lat;lon;timestamp;temperature;humidity
5870;DHT22;2961;47.702;9.410;2024-03-02T00:01:22;4.70;99.90
5870;DHT22;2961;47.702;9.410;2024-03-02T00:03:49;4.60;99.90
5870;DHT22;2961;47.702;9.410;2024-03-02T00:06:19;4.70;99.90
5870;DHT22;2961;47.702;9.410;2024-03-02T00:08:46;4.60;99.90
5870;DHT22;2961;47.702;9.410;2024-03-02T00:11:15;4.50;99.90
5870;DHT22;2961;47.702;9.410;2024-03-02T00:13:41;4.40;99.90
5870;DHT22;2961;47.702;9.410;2024-03-02T00:16:08;4.40;99.90
5870;DHT22;2961;47.702;9.410;2024-03-02T00:18:36;4.30;99.90
5870;DHT22;2961;47.702;9.410;2024-03-02T00:21:06;4.30;99.90
5870;DHT22;2961;47.702;9.410;2024-03-02T00:23:35;4.20;99.90
5870;DHT22;2961;47.702;9.410;2024-03-02T00:26:02;4.10;99.90
5870;DHT22;2961;47.702;9.410;2024-03-02T00:28:32;4.00;99.90
5870;DHT22;2961;47.702;9.410;2024-03-02T00:31:04;4.00;99.90
5870;DHT22;2961;47.702;9.410;2024-03-02T00:33:32;4.00;99.90
5870;DHT22;2961;47.702;9.410;2024-03-02T00:36:01;4.00;99.90
5870;DHT22;2961;47.702;9.410;2024-03-02T00:38:27;3.90;99.90
5870;DHT22;2961;47.702;9.410;2024-03-02T00:40:54;3.80;99.90
5870;DHT22;2961;47.702;9.410;2024-03-02T00:43:42;3.70;99.90
5870;DHT22;2961;47.702;9.410;2024-03-02T00:46:11;3.70;99.90
5870;DHT22;2961;47.702;9.410;2024-03-02T00:48:39;3.60;99.90
5870;DHT22;2961;47.702;9.410;2024-03-02T00:51:06;3.70;99.90
5870;DHT22;2961;47.702;9.410;2024-03-02T00:53:33;3.80;99.90
5870;DHT22;2961;47.702;9.410;2024-03-02T00:56:01;3.80;99.90
5870;DHT22;2961;47.702;9.410;2024-03-02T00:58:28;3.90;99.90
5870;DHT22;2961;47.702;9.410;2024-03-02T01:00:56;4.00;99.90
5870;DHT22;2961;47.702;9.410;2024-03-02T01:03:23;3.90;99.90
5870;DHT22;2961;47.702;9.410;2024-03-02T01:05:49;3.80;99.90
5870;DHT22;2961;47.702;9.410;2024-03-02T01:08:16;3.80;99.90
5870;DHT22;2961;47.702;9.410;2024-03-02T01:10:43;3.80;99.90
5870;DHT22;2961;47.702;9.410;2024-03-02T01:13:10;3.90;99.90
5870;DHT22;2961;47.702;9.410;2024-03-02T01:15:37;4.10;99.90
5870;DHT22;2961;47.702;9.410;2024-03-02T01:18:05;4.20;99.90
5870;DHT22;2961;47.702;9.410;2024-03-02T01:20:32;4.20;99.90
5870;DHT22;2961;47.702;9.410;2024-03-02T01:22:59;4.20;99.90
5870;DHT22;2961;47.702;9.410;2024-03-02T01:25:26;4.10;99.90
5870;DHT22;2961;47.702;9.410;2024-03-02T01:27:52;4.00;99.90
5870;DHT22;2961;47.702;9.410;2024-03-02T01:30:19;4.00;99.90
5870;DHT22;2961;47.702;9.410;2024-03-02T01:32:46;3.90;99.90
5870;DHT22;2961;47.702;9.410;2024-03-02T01:35:15;3.80;99.90
5870;DHT22;2961;47.702;9.410;2024-03-02T01:37:41;3.90;99.90
5870;DHT22;2961;47.702;9.410;2024-03-02T01:40:09;3.90;99.90
5870;DHT22;2961;47.702;9.410;2024-03-02T01:42:36;3.90;99.90
5870;DHT22;2961;47.702;9.410;2024-03-02T01:45:04;4.00;99.90
5870;DHT22;2961;47.702;9.410;2024-03-02T01:47:31;4.00;99.90
5870;DHT22;2961;47.702;9.410;2024-03-02T01:49:59;4.10;99.90
5870;DHT22;2961;47.702;9.410;2024-03-02T01:52:28;4.10;99.90
5870;DHT22;2961;47.702;9.410;2024-03-02T01:54:55;4.20;99.90
5870;DHT22;2961;47.702;9.410;2024-03-02T01:57:22;4.20;99.90
5870;DHT22;2961;47.702;9.410;2024-03-02T01:59:49;4.30;99.90
5870;DHT22;2961;47.702;9.410;2024-03-02T02:02:16;4.40;99.90
5870;DHT22;2961;47.702;9.410;2024-03-02T02:04:43;4.40;99.90
5870;DHT22;2961;47.702;9.410;2024-03-02T02:07:10;4.40;99.90
5870;DHT22;2961;47.702;9.410;2024-03-02T02:09:38;4.40;99.90
5870;DHT22;2961;47.702;9.410;2024-03-02T02:12:05;4.50;99.90
5870;DHT22;2961;47.702;9.410;2024-03-02T02:14:33;4.40;99.90
5870;DHT22;2961;47.702;9.410;2024-03-02T02:17:00;4.30;99.90
5870;DHT22;2961;47.702;9.410;2024-03-02T02:19:27;4.20;99.90
5870;DHT22;2961;47.702;9.410;2024-03-02T02:21:55;4.20;99.90
5870;DHT22;2961;47.702;9.410;2024-03-02T02:24:22;4.20;99.90
5870;DHT22;2961;47.702;9.410;2024-03-02T02:26:48;4.20;99.90
5870;DHT22;2961;47.702;9.410;2024-03-02T02:29:15;4.20;99.90
5870;DHT22;2961;47.702;9.410;2024-03-02T02:31:42;4.30;99.90
5870;DHT22;2961;47.702;9.410;2024-03-02T02:34:09;4.30;99.90
5870;DHT22;2961;47.702;9.410;2024-03-02T02:36:38;4.20;99.90
5870;DHT22;2961;47.702;9.410;2024-03-02T02:39:09;4.10;99.90
5870;DHT22;2961;47.702;9.410;2024-03-02T02:41:37;4.00;99.90
5870;DHT22;2961;47.702;9.410;2024-03-02T02:44:04;4.20;99.90
5870;DHT22;2961;47.702;9.410;2024-03-02T02:46:31;4.40;99.90
5870;DHT22;2961;47.702;9.410;2024-03-02T02:48:58;4.20;99.90
5870;DHT22;2961;47.702;9.410;2024-03-02T02:51:25;4.10;99.90
5870;DHT22;2961;47.702;9.410;2024-03-02T02:53:52;3.90;99.90
5870;DHT22;2961;47.702;9.410;2024-03-02T02:56:20;3.90;99.90
5870;DHT22;2961;47.702;9.410;2024-03-02T02:58:46;3.90;99.90
5870;DHT22;2961;47.702;9.410;2024-03-02T03:01:14;3.80;99.90
5870;DHT22;2961;47.702;9.410;2024-03-02T03:03:42;3.70;99.90
5870;DHT22;2961;47.702;9.410;2024-03-02T03:06:09;3.70;99.90
5870;DHT22;2961;47.702;9.410;2024-03-02T03:08:36;3.50;99.90
5870;DHT22;2961;47.702;9.410;2024-03-02T03:11:03;3.40;99.90
5870;DHT22;2961;47.702;9.410;2024-03-02T03:13:31;3.30;99.90
5870;DHT22;2961;47.702;9.410;2024-03-02T03:15:58;3.30;99.90
5870;DHT22;2961;47.702;9.410;2024-03-02T03:18:25;3.20;99.90
5870;DHT22;2961;47.702;9.410;2024-03-02T03:20:52;3.10;99.90
5870;DHT22;2961;47.702;9.410;2024-03-02T03:23:18;3.10;99.90
5870;DHT22;2961;47.702;9.410;2024-03-02T03:25:46;3.10;99.90
5870;DHT22;2961;47.702;9.410;2024-03-02T03:28:13;3.00;99.90
5870;DHT22;2961;47.702;9.410;2024-03-02T03:30:41;3.10;99.90
5870;DHT22;2961;47.702;9.410;2024-03-02T03:33:08;3.10;99.90
5870;DHT22;2961;47.702;9.410;2024-03-02T03:35:36;3.10;99.90
5870;DHT22;2961;47.702;9.410;2024-03-02T03:38:04;3.10;99.90
5870;DHT22;2961;47.702;9.410;2024-03-02T03:40:31;3.00;99.90
5870;DHT22;2961;47.702;9.410;2024-03-02T03:42:57;2.90;99.90
5870;DHT22;2961;47.702;9.410;2024-03-02T03:45:25;2.90;99.90
5870;DHT22;2961;47.702;9.410;2024-03-02T03:47:53;3.00;99.90
5870;DHT22;2961;47.702;9.410;2024-03-02T03:50:20;3.10;99.90
5870;DHT22;2961;47.702;9.410;2024-03-02T03:52:47;3.10;99.90
5870;DHT22;2961;47.702;9.410;2024-03-02T03:55:14;3.10;99.90
5870;DHT22;2961;47.702;9.410;2024-03-02T03:57:41;3.10;99.90
5870;DHT22;2961;47.702;9.410;2024-03-02T04:00:08;3.20;99.90
5870;DHT22;2961;47.702;9.410;2024-03-02T04:02:37;3.30;99.90
5870;DHT22;2961;47.702;9.410;2024-03-02T04:05:05;3.30;99.90
5870;DHT22;2961;47.702;9.410;2024-03-02T04:07:35;3.40;99.90
5870;DHT22;2961;47.702;9.410;2024-03-02T04:10:07;3.40;99.90
5870;DHT22;2961;47.702;9.410;2024-03-02T04:12:35;3.40;99.90
5870;DHT22;2961;47.702;9.410;2024-03-02T04:15:02;3.50;99.90
5870;DHT22;2961;47.702;9.410;2024-03-02T04:17:31;3.50;99.90
5870;DHT22;2961;47.702;9.410;2024-03-02T04:19:57;3.60;99.90
5870;DHT22;2961;47.702;9.410;2024-03-02T04:22:26;3.60;99.90
5870;DHT22;2961;47.702;9.410;2024-03-02T04:24:53;3.60;99.90
5870;DHT22;2961;47.702;9.410;2024-03-02T04:27:20;3.70;99.90
5870;DHT22;2961;47.702;9.410;2024-03-02T04:29:46;3.90;99.90
5870;DHT22;2961;47.702;9.410;2024-03-02T04:32:13;4.00;99.90
5870;DHT22;2961;47.702;9.410;2024-03-02T04:34:40;4.00;99.90
5870;DHT22;2961;47.702;9.410;2024-03-02T04:37:08;4.10;99.90
5870;DHT22;2961;47.702;9.410;2024-03-02T04:39:36;4.10;99.90
5870;DHT22;2961;47.702;9.410;2024-03-02T04:42:04;4.10;99.90
5870;DHT22;2961;47.702;9.410;2024-03-02T04:44:30;4.20;99.90
5870;DHT22;2961;47.702;9.410;2024-03-02T04:46:57;4.20;99.90
5870;DHT22;2961;47.702;9.410;2024-03-02T04:49:24;4.40;99.90
5870;DHT22;2961;47.702;9.410;2024-03-02T04:51:51;4.40;99.90
5870;DHT22;2961;47.702;9.410;2024-03-02T04:54:17;4.50;99.90
5870;DHT22;2961;47.702;9.410;2024-03-02T04:56:46;4.50;99.90
5870;DHT22;2961;47.702;9.410;2024-03-02T04:59:16;4.60;99.90
5870;DHT22;2961;47.702;9.410;2024-03-02T05:01:43;4.60;99.90
5870;DHT22;2961;47.702;9.410;2024-03-02T05:04:10;4.60;99.90
5870;DHT22;2961;47.702;9.410;2024-03-02T05:06:37;4.60;99.90
5870;DHT22;2961;47.702;9.410;2024-03-02T05:09:05;4.60;99.90
5870;DHT22;2961;47.702;9.410;2024-03-02T05:11:32;4.60;99.90
5870;DHT22;2961;47.702;9.410;2024-03-02T05:14:23;4.60;99.90
5870;DHT22;2961;47.702;9.410;2024-03-02T05:16:49;4.60;99.90
5870;DHT22;2961;47.702;9.410;2024-03-02T05:19:17;4.60;99.90
5870;DHT22;2961;47.702;9.410;2024-03-02T05:21:44;4.60;99.90
5870;DHT22;2961;47.702;9.410;2024-03-02T05:24:10;4.70;99.90
5870;DHT22;2961;47.702;9.410;2024-03-02T05:26:37;4.60;99.90
5870;DHT22;2961;47.702;9.410;2024-03-02T05:29:04;4.60;99.90
5870;DHT22;2961;47.702;9.410;2024-03-02T05:31:32;4.70;99.90
5870;DHT22;2961;47.702;9.410;2024-03-02T05:33:59;4.60;99.90
5870;DHT22;2961;47.702;9.410;2024-03-02T05:36:25;4.60;99.90
5870;DHT22;2961;47.702;9.410;2024-03-02T05:38:52;4.70;99.90
5870;DHT22;2961;47.702;9.410;2024-03-02T05:41:19;4.70;99.90
5870;DHT22;2961;47.702;9.410;2024-03-02T05:43:46;4.60;99.90
5870;DHT22;2961;47.702;9.410;2024-03-02T05:46:13;4.60;99.90
5870;DHT22;2961;47.702;9.410;2024-03-02T05:48:41;4.70;99.90
5870;DHT22;2961;47.702;9.410;2024-03-02T05:51:07;4.70;99.90
5870;DHT22;2961;47.702;9.410;2024-03-02T05:53:34;4.60;99.90
5870;DHT22;2961;47.702;9.410;2024-03-02T05:56:04;4.60;99.90
5870;DHT22;2961;47.702;9.410;2024-03-02T05:58:31;4.50;99.90
5870;DHT22;2961;47.702;9.410;2024-03-02T06:01:13;4.50;99.90
5870;DHT22;2961;47.702;9.410;2024-03-02T06:03:41;4.50;99.90
5870;DHT22;2961;47.702;9.410;2024-03-02T06:06:08;4.50;99.90
5870;DHT22;2961;47.702;9.410;2024-03-02T06:08:35;4.60;99.90
5870;DHT22;2961;47.702;9.410;2024-03-02T06:11:02;4.60;99.90
5870;DHT22;2961;47.702;9.410;2024-03-02T06:13:29;4.60;99.90
5870;DHT22;2961;47.702;9.410;2024-03-02T06:15:56;4.60;99.90
5870;DHT22;2961;47.702;9.410;2024-03-02T06:18:22;4.60;99.90
5870;DHT22;2961;47.702;9.410;2024-03-02T06:20:50;4.60;99.90
5870;DHT22;2961;47.702;9.410;2024-03-02T06:23:17;4.60;99.90
5870;DHT22;2961;47.702;9.410;2024-03-02T06:25:44;4.60;99.90
5870;DHT22;2961;47.702;9.410;2024-03-02T06:28:11;4.60;99.90
5870;DHT22;2961;47.702;9.410;2024-03-02T06:30:36;4.60;99.90
5870;DHT22;2961;47.702;9.410;2024-03-02T06:33:04;4.60;99.90
5870;DHT22;2961;47.702;9.410;2024-03-02T06:35:31;4.70;99.90
5870;DHT22;2961;47.702;9.410;2024-03-02T06:37:59;4.70;99.90
5870;DHT22;2961;47.702;9.410;2024-03-02T06:40:26;4.70;99.90
5870;DHT22;2961;47.702;9.410;2024-03-02T06:42:53;4.80;99.90
5870;DHT22;2961;47.702;9.410;2024-03-02T06:45:20;4.80;99.90
5870;DHT22;2961;47.702;9.410;2024-03-02T06:47:47;4.80;99.90
5870;DHT22;2961;47.702;9.410;2024-03-02T06:50:14;4.90;99.90
5870;DHT22;2961;47.702;9.410;2024-03-02T06:52:40;4.90;99.90
5870;DHT22;2961;47.702;9.410;2024-03-02T06:55:09;5.00;99.90
5870;DHT22;2961;47.702;9.410;2024-03-02T06:57:36;5.10;99.90
5870;DHT22;2961;47.702;9.410;2024-03-02T07:00:03;5.10;99.90
5870;DHT22;2961;47.702;9.410;2024-03-02T07:02:30;5.10;99.90
5870;DHT22;2961;47.702;9.410;2024-03-02T07:04:57;5.20;99.90
5870;DHT22;2961;47.702;9.410;2024-03-02T07:07:24;5.10;99.90
5870;DHT22;2961;47.702;9.410;2024-03-02T07:09:51;5.20;99.90
5870;DHT22;2961;47.702;9.410;2024-03-02T07:12:28;5.30;99.90
5870;DHT22;2961;47.702;9.410;2024-03-02T07:14:55;5.30;99.90
5870;DHT22;2961;47.702;9.410;2024-03-02T07:17:37;5.30;99.90
5870;DHT22;2961;47.702;9.410;2024-03-02T07:20:04;5.30;99.90
5870;DHT22;2961;47.702;9.410;2024-03-02T07:22:32;5.30;99.90
5870;DHT22;2961;47.702;9.410;2024-03-02T07:24:59;5.30;99.90
5870;DHT22;2961;47.702;9.410;2024-03-02T07:27:27;5.40;99.90
5870;DHT22;2961;47.702;9.410;2024-03-02T07:29:54;5.40;99.90
5870;DHT22;2961;47.702;9.410;2024-03-02T07:32:21;5.40;99.90
5870;DHT22;2961;47.702;9.410;2024-03-02T07:34:48;5.40;99.90
5870;DHT22;2961;47.702;9.410;2024-03-02T07:37:16;5.40;99.90
5870;DHT22;2961;47.702;9.410;2024-03-02T07:39:44;5.50;99.90
5870;DHT22;2961;47.702;9.410;2024-03-02T07:42:11;5.50;99.90
5870;DHT22;2961;47.702;9.410;2024-03-02T07:44:39;5.50;99.90
5870;DHT22;2961;47.702;9.410;2024-03-02T07:47:06;5.50;99.90
5870;DHT22;2961;47.702;9.410;2024-03-02T07:49:33;5.50;99.90
5870;DHT22;2961;47.702;9.410;2024-03-02T07:52:00;5.50;99.90
5870;DHT22;2961;47.702;9.410;2024-03-02T07:54:27;5.50;99.90
5870;DHT22;2961;47.702;9.410;2024-03-02T07:56:53;5.60;99.90
5870;DHT22;2961;47.702;9.410;2024-03-02T07:59:20;5.70;99.90
5870;DHT22;2961;47.702;9.410;2024-03-02T08:01:49;5.70;99.90
5870;DHT22;2961;47.702;9.410;2024-03-02T08:04:16;5.70;99.90
5870;DHT22;2961;47.702;9.410;2024-03-02T08:06:43;5.70;99.90
5870;DHT22;2961;47.702;9.410;2024-03-02T08:09:11;5.80;99.90
5870;DHT22;2961;47.702;9.410;2024-03-02T08:11:38;5.80;99.90
5870;DHT22;2961;47.702;9.410;2024-03-02T08:14:05;5.90;99.90
5870;DHT22;2961;47.702;9.410;2024-03-02T08:16:31;5.90;99.90
5870;DHT22;2961;47.702;9.410;2024-03-02T08:19:01;5.90;99.90
5870;DHT22;2961;47.702;9.410;2024-03-02T08:21:29;5.90;99.90
5870;DHT22;2961;47.702;9.410;2024-03-02T08:23:57;5.90;99.90
5870;DHT22;2961;47.702;9.410;2024-03-02T08:26:24;5.90;99.90
5870;DHT22;2961;47.702;9.410;2024-03-02T08:28:54;5.90;99.90
5870;DHT22;2961;47.702;9.410;2024-03-02T08:31:21;6.00;99.90
5870;DHT22;2961;47.702;9.410;2024-03-02T08:33:47;6.10;99.90
5870;DHT22;2961;47.702;9.410;2024-03-02T08:36:16;6.30;99.90
5870;DHT22;2961;47.702;9.410;2024-03-02T08:38:42;6.40;99.90
5870;DHT22;2961;47.702;9.410;2024-03-02T08:41:10;6.60;99.90
5870;DHT22;2961;47.702;9.410;2024-03-02T08:43:38;6.80;99.90
5870;DHT22;2961;47.702;9.410;2024-03-02T08:46:07;7.00;99.90
5870;DHT22;2961;47.702;9.410;2024-03-02T08:48:34;7.20;99.90
5870;DHT22;2961;47.702;9.410;2024-03-02T08:51:01;7.40;99.90
5870;DHT22;2961;47.702;9.410;2024-03-02T08:53:31;7.50;99.90
5870;DHT22;2961;47.702;9.410;2024-03-02T08:55:58;7.70;99.90
5870;DHT22;2961;47.702;9.410;2024-03-02T08:58:25;7.70;99.90
5870;DHT22;2961;47.702;9.410;2024-03-02T09:00:51;7.80;99.90
5870;DHT22;2961;47.702;9.410;2024-03-02T09:03:18;7.90;99.90
5870;DHT22;2961;47.702;9.410;2024-03-02T09:05:45;8.00;99.90
5870;DHT22;2961;47.702;9.410;2024-03-02T09:08:12;8.20;99.90
5870;DHT22;2961;47.702;9.410;2024-03-02T09:10:40;8.30;99.90
5870;DHT22;2961;47.702;9.410;2024-03-02T09:13:07;8.30;99.90
5870;DHT22;2961;47.702;9.410;2024-03-02T09:15:34;8.30;99.90
5870;DHT22;2961;47.702;9.410;2024-03-02T09:18:03;8.10;99.90
5870;DHT22;2961;47.702;9.410;2024-03-02T09:20:30;8.10;99.90
5870;DHT22;2961;47.702;9.410;2024-03-02T09:22:57;8.20;99.90
5870;DHT22;2961;47.702;9.410;2024-03-02T09:25:23;8.30;99.90
5870;DHT22;2961;47.702;9.410;2024-03-02T09:27:52;8.50;99.90
5870;DHT22;2961;47.702;9.410;2024-03-02T09:30:19;8.70;99.90
5870;DHT22;2961;47.702;9.410;2024-03-02T09:32:45;8.80;99.90
5870;DHT22;2961;47.702;9.410;2024-03-02T09:35:12;8.90;99.90
5870;DHT22;2961;47.702;9.410;2024-03-02T09:37:39;8.90;99.90
5870;DHT22;2961;47.702;9.410;2024-03-02T09:40:07;8.90;99.90
5870;DHT22;2961;47.702;9.410;2024-03-02T09:42:34;8.90;99.90
5870;DHT22;2961;47.702;9.410;2024-03-02T09:45:02;8.80;99.90
5870;DHT22;2961;47.702;9.410;2024-03-02T09:47:29;9.00;99.90
5870;DHT22;2961;47.702;9.410;2024-03-02T09:49:56;9.30;99.90
5870;DHT22;2961;47.702;9.410;2024-03-02T09:52:23;9.50;99.90
5870;DHT22;2961;47.702;9.410;2024-03-02T09:54:50;9.40;99.90
5870;DHT22;2961;47.702;9.410;2024-03-02T09:57:17;9.30;99.90
5870;DHT22;2961;47.702;9.410;2024-03-02T09:59:44;9.10;99.90
5870;DHT22;2961;47.702;9.410;2024-03-02T10:02:12;9.00;99.90
5870;DHT22;2961;47.702;9.410;2024-03-02T10:04:39;8.90;99.90
5870;DHT22;2961;47.702;9.410;2024-03-02T10:07:13;8.80;99.90
5870;DHT22;2961;47.702;9.410;2024-03-02T10:09:41;8.80;99.90
5870;DHT22;2961;47.702;9.410;2024-03-02T10:12:09;8.80;99.90
5870;DHT22;2961;47.702;9.410;2024-03-02T10:14:37;8.90;99.90
5870;DHT22;2961;47.702;9.410;2024-03-02T10:17:05;9.00;99.90
5870;DHT22;2961;47.702;9.410;2024-03-02T10:19:33;9.00;99.90
5870;DHT22;2961;47.702;9.410;2024-03-02T10:22:03;9.10;99.90
5870;DHT22;2961;47.702;9.410;2024-03-02T10:24:36;9.20;99.90
5870;DHT22;2961;47.702;9.410;2024-03-02T10:27:10;9.20;99.90
5870;DHT22;2961;47.702;9.410;2024-03-02T10:29:40;9.30;99.90
5870;DHT22;2961;47.702;9.410;2024-03-02T10:32:11;9.40;99.90
5870;DHT22;2961;47.702;9.410;2024-03-02T10:34:40;9.40;99.90
5870;DHT22;2961;47.702;9.410;2024-03-02T10:37:07;9.50;99.90
5870;DHT22;2961;47.702;9.410;2024-03-02T10:39:34;9.60;99.90
5870;DHT22;2961;47.702;9.410;2024-03-02T10:42:03;9.70;99.90
5870;DHT22;2961;47.702;9.410;2024-03-02T10:44:30;9.70;99.90
5870;DHT22;2961;47.702;9.410;2024-03-02T10:47:00;9.80;99.90
5870;DHT22;2961;47.702;9.410;2024-03-02T10:49:30;9.90;99.90
5870;DHT22;2961;47.702;9.410;2024-03-02T10:51:58;10.00;99.90
5870;DHT22;2961;47.702;9.410;2024-03-02T10:54:25;10.00;99.90
5870;DHT22;2961;47.702;9.410;2024-03-02T10:56:56;10.00;99.90
5870;DHT22;2961;47.702;9.410;2024-03-02T10:59:27;10.10;99.90
5870;DHT22;2961;47.702;9.410;2024-03-02T11:01:57;10.20;99.90
5870;DHT22;2961;47.702;9.410;2024-03-02T11:04:26;10.10;99.90
5870;DHT22;2961;47.702;9.410;2024-03-02T11:06:56;10.20;99.90
5870;DHT22;2961;47.702;9.410;2024-03-02T11:09:28;10.20;99.90
5870;DHT22;2961;47.702;9.410;2024-03-02T11:12:00;10.40;99.90
5870;DHT22;2961;47.702;9.410;2024-03-02T11:14:30;10.50;99.90
5870;DHT22;2961;47.702;9.410;2024-03-02T11:16:58;10.50;99.90
5870;DHT22;2961;47.702;9.410;2024-03-02T11:19:26;10.60;99.90
5870;DHT22;2961;47.702;9.410;2024-03-02T11:21:54;10.70;99.90
5870;DHT22;2961;47.702;9.410;2024-03-02T11:24:32;10.80;99.90
5870;DHT22;2961;47.702;9.410;2024-03-02T11:27:03;10.90;99.90
5870;DHT22;2961;47.702;9.410;2024-03-02T11:29:45;10.90;99.90
5870;DHT22;2961;47.702;9.410;2024-03-02T11:32:14;11.00;99.90
5870;DHT22;2961;47.702;9.410;2024-03-02T11:34:42;11.10;99.90
5870;DHT22;2961;47.702;9.410;2024-03-02T11:37:12;11.20;99.90
5870;DHT22;2961;47.702;9.410;2024-03-02T11:39:40;11.20;99.90
5870;DHT22;2961;47.702;9.410;2024-03-02T11:42:07;11.40;99.90
5870;DHT22;2961;47.702;9.410;2024-03-02T11:44:36;11.50;99.90
5870;DHT22;2961;47.702;9.410;2024-03-02T11:47:05;11.70;99.90
5870;DHT22;2961;47.702;9.410;2024-03-02T11:49:39;11.80;99.90
5870;DHT22;2961;47.702;9.410;2024-03-02T11:52:07;11.80;99.90
5870;DHT22;2961;47.702;9.410;2024-03-02T11:54:36;11.90;99.90
5870;DHT22;2961;47.702;9.410;2024-03-02T11:57:07;12.00;99.90
5870;DHT22;2961;47.702;9.410;2024-03-02T11:59:34;12.10;99.90
5870;DHT22;2961;47.702;9.410;2024-03-02T12:02:01;12.10;99.90
5870;DHT22;2961;47.702;9.410;2024-03-02T12:04:29;12.10;99.90
5870;DHT22;2961;47.702;9.410;2024-03-02T12:07:01;12.20;99.90
5870;DHT22;2961;47.702;9.410;2024-03-02T12:09:28;12.20;99.90
5870;DHT22;2961;47.702;9.410;2024-03-02T12:12:06;12.20;99.90
5870;DHT22;2961;47.702;9.410;2024-03-02T12:14:34;12.20;99.90
5870;DHT22;2961;47.702;9.410;2024-03-02T12:17:02;12.20;99.90
5870;DHT22;2961;47.702;9.410;2024-03-02T12:19:29;12.30;99.90
5870;DHT22;2961;47.702;9.410;2024-03-02T12:21:57;12.40;99.90
5870;DHT22;2961;47.702;9.410;2024-03-02T12:24:26;12.40;99.90
5870;DHT22;2961;47.702;9.410;2024-03-02T12:26:53;12.50;99.90
5870;DHT22;2961;47.702;9.410;2024-03-02T12:29:22;12.50;99.90
5870;DHT22;2961;47.702;9.410;2024-03-02T12:31:50;12.40;99.90
5870;DHT22;2961;47.702;9.410;2024-03-02T12:34:18;12.30;99.90
5870;DHT22;2961;47.702;9.410;2024-03-02T12:36:46;12.40;99.90
5870;DHT22;2961;47.702;9.410;2024-03-02T12:39:15;12.40;99.90
5870;DHT22;2961;47.702;9.410;2024-03-02T12:41:42;12.40;99.90
5870;DHT22;2961;47.702;9.410;2024-03-02T12:44:09;12.40;99.90
5870;DHT22;2961;47.702;9.410;2024-03-02T12:46:37;12.40;99.90
5870;DHT22;2961;47.702;9.410;2024-03-02T12:49:09;12.60;99.90
5870;DHT22;2961;47.702;9.410;2024-03-02T12:51:39;12.70;99.90
5870;DHT22;2961;47.702;9.410;2024-03-02T12:54:07;12.80;99.90
5870;DHT22;2961;47.702;9.410;2024-03-02T12:56:35;12.80;99.90
5870;DHT22;2961;47.702;9.410;2024-03-02T12:59:02;12.90;99.90
5870;DHT22;2961;47.702;9.410;2024-03-02T13:01:29;12.90;99.90
5870;DHT22;2961;47.702;9.410;2024-03-02T13:03:58;12.90;99.90
5870;DHT22;2961;47.702;9.410;2024-03-02T13:06:26;12.90;99.90
5870;DHT22;2961;47.702;9.410;2024-03-02T13:08:54;13.00;99.90
5870;DHT22;2961;47.702;9.410;2024-03-02T13:11:22;13.00;99.90
5870;DHT22;2961;47.702;9.410;2024-03-02T13:13:49;13.00;99.90
5870;DHT22;2961;47.702;9.410;2024-03-02T13:16:17;13.00;99.90
5870;DHT22;2961;47.702;9.410;2024-03-02T13:18:45;13.00;99.90
5870;DHT22;2961;47.702;9.410;2024-03-02T13:21:13;13.10;99.90
5870;DHT22;2961;47.702;9.410;2024-03-02T13:23:40;13.10;99.90
5870;DHT22;2961;47.702;9.410;2024-03-02T13:26:07;13.20;99.90
5870;DHT22;2961;47.702;9.410;2024-03-02T13:28:36;13.30;99.90
5870;DHT22;2961;47.702;9.410;2024-03-02T13:31:04;13.30;99.90
5870;DHT22;2961;47.702;9.410;2024-03-02T13:33:31;13.30;99.90
5870;DHT22;2961;47.702;9.410;2024-03-02T13:35:58;13.40;99.90
5870;DHT22;2961;47.702;9.410;2024-03-02T13:38:26;13.30;99.90
5870;DHT22;2961;47.702;9.410;2024-03-02T13:40:53;13.30;99.90
5870;DHT22;2961;47.702;9.410;2024-03-02T13:43:20;13.40;99.90
5870;DHT22;2961;47.702;9.410;2024-03-02T13:45:47;13.40;99.90
5870;DHT22;2961;47.702;9.410;2024-03-02T13:48:14;13.60;99.90
5870;DHT22;2961;47.702;9.410;2024-03-02T13:50:41;13.70;99.90
5870;DHT22;2961;47.702;9.410;2024-03-02T13:53:08;13.90;99.90
5870;DHT22;2961;47.702;9.410;2024-03-02T13:55:37;14.20;99.90
5870;DHT22;2961;47.702;9.410;2024-03-02T13:58:04;14.30;99.90
5870;DHT22;2961;47.702;9.410;2024-03-02T14:00:31;14.40;99.90
5870;DHT22;2961;47.702;9.410;2024-03-02T14:02:58;14.40;99.90
5870;DHT22;2961;47.702;9.410;2024-03-02T14:05:24;14.30;99.90
5870;DHT22;2961;47.702;9.410;2024-03-02T14:07:51;14.20;99.90
5870;DHT22;2961;47.702;9.410;2024-03-02T14:10:18;14.20;99.90
5870;DHT22;2961;47.702;9.410;2024-03-02T14:12:49;14.20;99.90
5870;DHT22;2961;47.702;9.410;2024-03-02T14:15:15;14.30;99.90
5870;DHT22;2961;47.702;9.410;2024-03-02T14:17:42;14.30;99.90
5870;DHT22;2961;47.702;9.410;2024-03-02T14:20:10;14.40;99.90
5870;DHT22;2961;47.702;9.410;2024-03-02T14:22:37;14.30;99.90
5870;DHT22;2961;47.702;9.410;2024-03-02T14:25:05;14.40;99.90
5870;DHT22;2961;47.702;9.410;2024-03-02T14:27:32;14.30;99.90
5870;DHT22;2961;47.702;9.410;2024-03-02T14:30:00;14.20;99.90
5870;DHT22;2961;47.702;9.410;2024-03-02T14:32:27;14.10;99.90
5870;DHT22;2961;47.702;9.410;2024-03-02T14:34:54;14.00;99.90
5870;DHT22;2961;47.702;9.410;2024-03-02T14:37:21;13.90;99.90
5870;DHT22;2961;47.702;9.410;2024-03-02T14:39:48;13.80;99.90
5870;DHT22;2961;47.702;9.410;2024-03-02T14:42:15;13.80;99.90
5870;DHT22;2961;47.702;9.410;2024-03-02T14:44:42;13.60;99.90
5870;DHT22;2961;47.702;9.410;2024-03-02T14:47:10;13.50;99.90
5870;DHT22;2961;47.702;9.410;2024-03-02T14:49:38;13.40;99.90
5870;DHT22;2961;47.702;9.410;2024-03-02T14:52:06;13.30;99.90
5870;DHT22;2961;47.702;9.410;2024-03-02T14:54:33;13.30;99.90
5870;DHT22;2961;47.702;9.410;2024-03-02T14:57:01;13.20;99.90
5870;DHT22;2961;47.702;9.410;2024-03-02T14:59:28;13.30;99.90
5870;DHT22;2961;47.702;9.410;2024-03-02T15:01:55;13.20;99.90
5870;DHT22;2961;47.702;9.410;2024-03-02T15:04:23;13.20;99.90
5870;DHT22;2961;47.702;9.410;2024-03-02T15:06:50;13.20;99.90
5870;DHT22;2961;47.702;9.410;2024-03-02T15:09:17;13.20;99.90
5870;DHT22;2961;47.702;9.410;2024-03-02T15:11:45;13.20;99.90
5870;DHT22;2961;47.702;9.410;2024-03-02T15:14:12;13.20;99.90
5870;DHT22;2961;47.702;9.410;2024-03-02T15:16:39;13.10;99.90
5870;DHT22;2961;47.702;9.410;2024-03-02T15:19:07;13.20;99.90
5870;DHT22;2961;47.702;9.410;2024-03-02T15:21:35;13.20;99.90
5870;DHT22;2961;47.702;9.410;2024-03-02T15:24:02;13.10;99.90
5870;DHT22;2961;47.702;9.410;2024-03-02T15:26:29;13.20;99.90
5870;DHT22;2961;47.702;9.410;2024-03-02T15:28:56;13.20;99.90
5870;DHT22;2961;47.702;9.410;2024-03-02T15:31:24;13.20;99.90
5870;DHT22;2961;47.702;9.410;2024-03-02T15:33:51;13.20;99.90
5870;DHT22;2961;47.702;9.410;2024-03-02T15:36:19;13.20;99.90
5870;DHT22;2961;47.702;9.410;2024-03-02T15:38:47;13.10;99.90
5870;DHT22;2961;47.702;9.410;2024-03-02T15:41:14;13.10;99.90
5870;DHT22;2961;47.702;9.410;2024-03-02T15:43:40;13.10;99.90
5870;DHT22;2961;47.702;9.410;2024-03-02T15:46:08;13.10;99.90
5870;DHT22;2961;47.702;9.410;2024-03-02T15:48:35;13.10;99.90
5870;DHT22;2961;47.702;9.410;2024-03-02T15:51:02;13.00;99.90
5870;DHT22;2961;47.702;9.410;2024-03-02T15:53:29;13.00;99.90
5870;DHT22;2961;47.702;9.410;2024-03-02T15:55:58;13.00;99.90
5870;DHT22;2961;47.702;9.410;2024-03-02T15:58:25;13.00;99.90
5870;DHT22;2961;47.702;9.410;2024-03-02T16:00:52;12.90;99.90
5870;DHT22;2961;47.702;9.410;2024-03-02T16:03:18;12.90;99.90
5870;DHT22;2961;47.702;9.410;2024-03-02T16:05:45;12.80;99.90
5870;DHT22;2961;47.702;9.410;2024-03-02T16:08:12;12.80;99.90
5870;DHT22;2961;47.702;9.410;2024-03-02T16:10:39;12.70;99.90
5870;DHT22;2961;47.702;9.410;2024-03-02T16:13:07;12.70;99.90
5870;DHT22;2961;47.702;9.410;2024-03-02T16:15:33;12.70;99.90